Port Lincoln, Australia
Current Conditions -  °F | °C
As of 5:00 PM on Monday 24 Nov 2014 (Local Time) from YWHA Reporting Station
Scattered Clouds Scattered Clouds  
Wind Chill: 68°   Ceiling: Unl
Heat Index: 68°   Visibility: 6mi
Dew Point: 50°   Wind: 25mph
Humidity: 52%   Direction: 180°S
Pressure: 29.97"   Gusts: NA
Location:  34.72°S, 135.86°E
Report Text: YWHA 240700Z AUTO 18022KT 9999 // SCT047 20/10 Q1015
Loading
Personal Weather Stations






























Interactive Weather Map New forecast layout! Learn more

10-Day Weather Forecast

Advertisements
Track Severe Weather on mobile